Time;durP1;ratioP1;P1;durP2;ratioP2;P2;SDS_P1;SDS_P2;PMS_P1;PMS_P2;Temp;Humidity;BMP_temperature;BMP_pressure;BME280_temperature;BME280_humidity;BME280_pressure;Samples;Min_cycle;Max_cycle;Signal;HPM_P1;HPM_P2
2022/11/08 00:02:32;;;;;;;4.22;1.38;;;;;;;20.53;47.48;100808.81;4914592;29;20085;-65
2022/11/08 00:04:57;;;;;;;8.75;1.50;;;;;;;20.52;47.73;100809.00;4944291;28;20042;-65
2022/11/08 00:15:37;;;;;;;3.85;1.65;;;;;;;20.42;48.15;100803.03;4973042;28;20050;-64
2022/11/08 00:18:04;;;;;;;8.65;1.80;;;;;;;20.43;47.85;100804.72;4972860;28;20463;-66
2022/11/08 00:20:30;;;;;;;4.60;1.50;;;;;;;20.37;48.00;100797.34;4956511;28;20035;-65
2022/11/08 00:22:55;;;;;;;2.78;1.13;;;;;;;20.39;47.80;100811.56;4956503;28;20386;-64
2022/11/08 00:25:20;;;;;;;3.60;1.35;;;;;;;20.39;48.98;100808.84;4956711;28;20436;-64
2022/11/08 00:27:46;;;;;;;4.30;1.38;;;;;;;20.41;48.17;100806.81;4956846;28;20030;-65
2022/11/08 00:30:11;;;;;;;3.00;0.98;;;;;;;20.41;47.74;100806.81;4972577;28;20039;-65
2022/11/08 00:32:36;;;;;;;4.90;1.15;;;;;;;20.43;48.05;100811.03;4972429;28;20059;-65
2022/11/08 00:35:02;;;;;;;2.03;1.20;;;;;;;20.42;48.10;100808.47;4956518;28;20039;-65
2022/11/08 00:37:27;;;;;;;6.18;1.02;;;;;;;20.39;47.96;100806.13;4972491;28;20062;-64
2022/11/08 00:39:53;;;;;;;6.85;1.27;;;;;;;20.39;47.98;100806.97;4956756;28;20396;-64
2022/11/08 00:42:18;;;;;;;4.63;1.38;;;;;;;20.37;48.13;100805.50;4972565;28;20169;-65
2022/11/08 00:44:43;;;;;;;5.65;1.05;;;;;;;20.36;47.69;100804.66;4972470;28;20031;-65
2022/11/08 00:47:09;;;;;;;10.52;1.05;;;;;;;20.37;48.06;100805.50;4973537;28;20451;-65
2022/11/08 00:49:34;;;;;;;5.28;1.40;;;;;;;20.33;48.36;100797.72;4973696;28;20034;-64
2022/11/08 00:51:59;;;;;;;4.38;1.10;;;;;;;20.34;48.20;100801.28;4972887;28;20073;-65
2022/11/08 00:54:25;;;;;;;2.90;1.23;;;;;;;20.32;48.02;100797.94;4972151;28;20065;-65
2022/11/08 00:56:50;;;;;;;7.63;1.45;;;;;;;20.33;48.18;100797.72;4956200;28;20037;-65
2022/11/08 00:59:17;;;;;;;1.10;1.00;;;;;;;20.31;47.70;100797.06;4956165;28;20030;-65
2022/11/08 01:01:43;;;;;;;1.45;1.02;;;;;;;20.30;47.79;100798.09;4972139;28;20031;-65
2022/11/08 01:04:11;;;;;;;3.28;0.98;;;;;;;20.31;48.26;100801.66;4956146;28;20035;-64
2022/11/08 01:06:37;;;;;;;5.07;1.73;;;;;;;20.30;47.98;100794.53;4972762;28;20026;-65
2022/11/08 01:09:03;;;;;;;5.90;1.15;;;;;;;20.29;48.70;100796.44;4972323;28;20567;-65
2022/11/08 01:11:29;;;;;;;4.97;1.05;;;;;;;20.26;48.10;100785.94;4956116;28;20125;-65
2022/11/08 01:13:57;;;;;;;3.45;0.82;;;;;;;20.27;48.52;100790.31;4972265;28;20065;-65
2022/11/08 01:16:24;;;;;;;3.90;1.08;;;;;;;20.33;48.18;100788.72;4972359;28;20500;-65
2022/11/08 01:18:51;;;;;;;2.10;0.70;;;;;;;20.29;48.68;100788.28;4959753;28;20023;-65
2022/11/08 01:21:17;;;;;;;4.03;0.77;;;;;;;20.30;48.13;100789.09;4975575;28;20038;-65
2022/11/08 01:23:44;;;;;;;5.40;1.08;;;;;;;20.33;47.75;100788.72;4975664;28;20027;-65
2022/11/08 01:26:21;;;;;;;5.13;0.70;;;;;;;20.31;48.28;100791.63;4975489;28;20039;-65
2022/11/08 01:28:46;;;;;;;1.17;0.45;;;;;;;20.31;47.21;100777.19;4975456;28;20485;-65
2022/11/08 01:31:17;;;;;;;6.07;1.30;;;;;;;20.31;47.90;100779.91;4959391;28;20089;-65
2022/11/08 01:33:43;;;;;;;1.77;0.52;;;;;;;20.29;47.88;100777.38;4959432;28;20022;-65
2022/11/08 01:36:10;;;;;;;4.30;1.13;;;;;;;20.25;47.76;100777.94;4959158;28;20519;-65
2022/11/08 01:38:36;;;;;;;2.13;0.47;;;;;;;20.23;47.59;100772.69;4959255;28;20042;-65
2022/11/08 01:41:01;;;;;;;2.17;0.93;;;;;;;20.23;47.51;100771.84;4959029;28;20034;-65
2022/11/08 01:43:29;;;;;;;1.85;0.45;;;;;;;20.20;47.91;100772.22;4975299;28;20481;-65
2022/11/08 01:46:25;;;;;;;2.78;0.50;;;;;;;20.18;47.60;100766.94;4975444;28;20023;-65
2022/11/08 01:48:56;;;;;;;4.38;0.70;;;;;;;20.15;47.33;100759.22;4976372;28;20042;-65
2022/11/08 01:51:25;;;;;;;4.95;0.88;;;;;;;20.13;47.56;100761.25;4974878;28;20038;-65
2022/11/08 01:53:51;;;;;;;3.40;0.80;;;;;;;20.12;47.23;100754.16;4976113;28;20057;-65
2022/11/08 01:56:17;;;;;;;3.17;1.02;;;;;;;20.08;47.17;100752.84;4976129;28;20042;-65
2022/11/08 01:58:43;;;;;;;1.85;0.52;;;;;;;20.05;47.15;100753.22;4959028;28;20166;-65
2022/11/08 02:01:10;;;;;;;3.40;0.52;;;;;;;20.04;47.10;100746.13;4974580;28;20089;-64
2022/11/08 02:03:35;;;;;;;3.00;0.88;;;;;;;20.01;47.78;100751.94;4976422;28;20081;-65
2022/11/08 02:06:02;;;;;;;1.58;0.32;;;;;;;19.98;46.65;100738.72;4958617;28;20035;-65
2022/11/08 02:08:27;;;;;;;1.40;0.52;;;;;;;19.95;46.88;100743.69;4958586;28;20097;-65
2022/11/08 02:10:53;;;;;;;5.00;0.40;;;;;;;19.93;46.62;100732.19;4975978;28;20441;-65
2022/11/08 02:13:20;;;;;;;0.43;0.40;;;;;;;19.89;46.56;100730.88;4958441;28;20027;-64
2022/11/08 02:15:46;;;;;;;3.35;0.90;;;;;;;19.82;46.96;100725.34;4958861;28;20118;-65
2022/11/08 02:18:13;;;;;;;2.47;0.68;;;;;;;19.77;47.38;100727.78;4958271;28;20038;-65
2022/11/08 02:20:45;;;;;;;3.83;0.65;;;;;;;19.72;47.36;100719.38;4975765;28;20485;-65
2022/11/08 02:23:43;;;;;;;3.35;0.98;;;;;;;19.58;46.51;100709.38;4974538;28;20563;-65
2022/11/08 02:26:09;;;;;;;2.13;0.43;;;;;;;19.57;46.44;100710.44;4974846;28;20057;-65
2022/11/08 02:28:42;;;;;;;2.90;0.73;;;;;;;19.53;46.90;100709.09;4958007;28;20114;-65
2022/11/08 02:31:08;;;;;;;4.38;0.68;;;;;;;19.48;47.02;100700.69;4974259;28;20113;-64
2022/11/08 02:33:34;;;;;;;3.30;0.60;;;;;;;19.44;46.36;100697.50;4974682;28;20019;-65
2022/11/08 02:36:00;;;;;;;3.13;0.60;;;;;;;19.39;47.20;100680.09;4958192;28;20031;-65
2022/11/08 02:38:26;;;;;;;1.15;0.60;;;;;;;19.36;47.34;100681.28;4974100;28;20508;-65
2022/11/08 02:40:53;;;;;;;3.42;0.73;;;;;;;19.35;47.18;100682.28;4954629;28;20027;-65
2022/11/08 02:43:19;;;;;;;2.45;0.73;;;;;;;19.30;47.27;100667.59;4954748;28;20038;-65
2022/11/08 02:45:44;;;;;;;1.98;0.55;;;;;;;19.28;47.02;100666.97;4971303;28;20031;-65
2022/11/08 02:48:10;;;;;;;1.30;0.50;;;;;;;19.28;47.17;100667.81;4954543;29;20114;-65
2022/11/08 02:50:35;;;;;;;2.83;0.70;;;;;;;19.25;47.43;100656.47;4955877;28;20450;-65
2022/11/08 02:53:02;;;;;;;1.63;0.63;;;;;;;19.22;46.61;100648.69;4955477;28;20074;-65
2022/11/08 02:55:28;;;;;;;5.57;1.02;;;;;;;19.20;47.00;100651.63;4954614;28;20038;-64
2022/11/08 02:57:53;;;;;;;4.28;0.82;;;;;;;19.17;47.09;100638.41;4971104;28;20047;-65
2022/11/08 03:00:19;;;;;;;3.58;0.50;;;;;;;19.15;47.22;100641.31;4956585;28;20115;-65
2022/11/08 03:02:44;;;;;;;0.73;0.52;;;;;;;19.14;47.00;100647.78;4973856;28;20042;-65
2022/11/08 03:05:09;;;;;;;2.33;0.47;;;;;;;19.10;47.26;100641.03;4957496;28;20039;-65
2022/11/08 03:07:35;;;;;;;1.13;0.60;;;;;;;19.12;47.09;100646.28;4957516;28;20030;-65
2022/11/08 03:10:00;;;;;;;5.30;0.75;;;;;;;19.11;47.35;100633.72;4957807;28;20488;-65
2022/11/08 03:12:25;;;;;;;2.28;0.70;;;;;;;19.06;47.56;100626.16;4973651;28;20517;-65
2022/11/08 03:14:51;;;;;;;2.95;0.73;;;;;;;19.08;46.93;100634.97;4974782;28;20449;-65
2022/11/08 03:17:17;;;;;;;1.77;0.60;;;;;;;19.04;47.23;100622.78;4973313;28;20035;-65
2022/11/08 03:19:42;;;;;;;2.30;0.52;;;;;;;19.02;46.80;100619.41;4974764;28;20054;-65
2022/11/08 03:22:07;;;;;;;1.52;0.50;;;;;;;19.03;47.23;100626.53;4973451;28;20393;-64
2022/11/08 03:24:33;;;;;;;4.47;0.60;;;;;;;19.01;48.14;100615.00;4975026;28;20106;-65
2022/11/08 03:26:59;;;;;;;1.15;0.40;;;;;;;19.01;47.26;100616.91;4974542;28;20042;-65
2022/11/08 03:29:24;;;;;;;0.95;0.60;;;;;;;18.99;47.48;100611.66;4974557;28;20069;-65
2022/11/08 03:31:49;;;;;;;4.50;0.80;;;;;;;18.94;47.30;100605.94;4957088;28;20527;-65
2022/11/08 03:34:15;;;;;;;2.33;0.47;;;;;;;18.96;47.28;100603.03;4953794;28;20023;-65
2022/11/08 03:36:40;;;;;;;3.55;0.80;;;;;;;18.96;47.03;100606.59;4955833;28;20034;-65
2022/11/08 03:39:06;;;;;;;7.32;0.65;;;;;;;18.95;47.26;100596.78;4956849;28;20034;-65
2022/11/08 03:41:31;;;;;;;1.55;0.68;;;;;;;18.95;47.52;100588.63;4972566;28;20404;-64
2022/11/08 03:43:56;;;;;;;7.20;1.10;;;;;;;18.94;46.93;100588.81;4941027;28;20081;-65
2022/11/08 03:46:22;;;;;;;3.00;0.73;;;;;;;18.91;47.21;100579.19;4956977;28;20027;-65
2022/11/08 03:48:47;;;;;;;2.60;0.70;;;;;;;18.91;47.18;100576.47;4973235;28;20039;-65
2022/11/08 03:51:12;;;;;;;3.72;0.75;;;;;;;18.88;47.18;100568.69;4974158;28;20572;-65
2022/11/08 03:53:38;;;;;;;1.58;0.90;;;;;;;18.89;47.45;100583.13;4972850;28;20438;-65
2022/11/08 03:56:03;;;;;;;3.10;0.57;;;;;;;18.87;47.31;100583.28;4972869;28;20074;-65
2022/11/08 03:58:29;;;;;;;1.95;0.50;;;;;;;18.88;47.58;100578.72;4973164;28;20047;-64
2022/11/08 04:00:56;;;;;;;2.20;0.52;;;;;;;18.87;47.35;100582.47;4957138;28;20374;-65
2022/11/08 04:03:22;;;;;;;5.30;0.60;;;;;;;18.89;46.95;100574.97;4941486;28;20035;-65
2022/11/08 04:05:47;;;;;;;4.25;0.70;;;;;;;18.84;47.09;100559.25;4957010;28;20405;-65
2022/11/08 04:08:13;;;;;;;0.63;0.55;;;;;;;18.91;47.62;100557.47;4974057;28;20038;-64
2022/11/08 04:10:38;;;;;;;1.42;0.60;;;;;;;18.92;47.42;100552.88;4972850;28;20089;-65
2022/11/08 04:15:53;;;;;;;1.10;0.60;;;;;;;18.91;47.32;100541.19;4972754;28;20041;-64
2022/11/08 04:21:21;;;;;;;3.75;0.52;;;;;;;18.90;47.38;100533.22;4972924;28;20097;-65
2022/11/08 04:23:51;;;;;;;0.93;0.40;;;;;;;18.90;47.09;100536.75;4972696;28;20050;-65
2022/11/08 04:26:17;;;;;;;0.85;0.55;;;;;;;18.89;46.90;100521.53;4972679;28;20051;-65
2022/11/08 04:28:42;;;;;;;3.58;1.05;;;;;;;18.90;46.77;100512.34;4956701;28;20105;-64
2022/11/08 04:31:14;;;;;;;3.35;0.75;;;;;;;18.91;46.57;100505.88;4972649;28;20027;-64
2022/11/08 04:33:39;;;;;;;1.63;0.60;;;;;;;18.90;46.76;100508.81;4956809;28;20428;-64
2022/11/08 04:36:08;;;;;;;3.38;0.32;;;;;;;18.90;46.10;100512.34;4972585;28;20035;-65
2022/11/08 04:38:33;;;;;;;3.45;0.68;;;;;;;18.91;46.61;100514.03;4972648;28;20433;-65
2022/11/08 04:41:01;;;;;;;2.00;0.65;;;;;;;18.91;46.70;100502.31;4973838;28;20035;-65
2022/11/08 04:43:27;;;;;;;1.45;0.77;;;;;;;18.88;46.66;100495.41;4973736;28;20041;-64
2022/11/08 04:46:17;;;;;;;2.92;0.70;;;;;;;18.87;46.91;100496.44;4956649;28;20027;-64
2022/11/08 04:48:43;;;;;;;0.80;0.60;;;;;;;18.84;46.76;100483.28;4971581;28;20500;-64
2022/11/08 04:51:13;;;;;;;0.73;0.50;;;;;;;18.83;46.82;100481.56;4957219;28;20411;-63
2022/11/08 04:53:39;;;;;;;3.55;0.70;;;;;;;18.80;46.86;100479.25;4959770;28;20587;-63
2022/11/08 04:56:06;;;;;;;1.45;0.70;;;;;;;18.78;47.00;100467.75;4977318;28;20066;-64
2022/11/08 04:58:35;;;;;;;7.13;1.00;;;;;;;18.79;46.52;100461.25;4959872;28;20042;-64
2022/11/08 05:01:02;;;;;;;2.15;1.05;;;;;;;18.78;46.51;100465.03;4976526;28;20026;-64
2022/11/08 05:03:28;;;;;;;4.45;0.52;;;;;;;18.77;46.31;100457.91;4959822;28;20038;-64
2022/11/08 05:05:54;;;;;;;4.50;0.70;;;;;;;18.72;46.83;100449.50;4959792;28;20038;-64
2022/11/08 05:08:19;;;;;;;3.13;0.50;;;;;;;18.74;47.10;100447.44;4959775;28;20038;-64
2022/11/08 05:10:44;;;;;;;5.18;0.63;;;;;;;18.73;46.45;100450.34;4975863;28;20035;-64
2022/11/08 05:13:10;;;;;;;1.65;0.85;;;;;;;18.69;46.98;100441.75;4959380;28;20027;-63
2022/11/08 05:15:35;;;;;;;2.10;0.68;;;;;;;18.72;46.50;100446.78;4976258;28;20054;-63
2022/11/08 05:18:00;;;;;;;4.03;0.45;;;;;;;18.72;46.25;100446.78;4975741;28;20042;-64
2022/11/08 05:23:25;;;;;;;1.00;0.50;;;;;;;18.71;46.82;100441.53;4975843;28;20041;-64
2022/11/08 05:25:52;;;;;;;1.05;0.43;;;;;;;18.70;46.41;100435.28;4975703;28;20031;-64
2022/11/08 05:28:17;;;;;;;2.03;0.70;;;;;;;18.69;46.47;100422.75;4975554;28;20026;-64
2022/11/08 05:30:43;;;;;;;3.33;0.88;;;;;;;18.70;46.69;100419.03;4977622;28;20041;-64
2022/11/08 05:33:08;;;;;;;3.83;0.85;;;;;;;18.67;46.77;100419.41;4976336;28;20042;-64
2022/11/08 05:35:34;;;;;;;1.67;0.80;;;;;;;18.70;46.28;100418.16;4975351;28;20038;-64
2022/11/08 05:38:00;;;;;;;3.13;0.52;;;;;;;18.70;46.06;100421.72;4975362;28;20057;-64
2022/11/08 05:40:25;;;;;;;3.80;0.82;;;;;;;18.70;46.16;100423.59;4976613;28;20122;-64
2022/11/08 05:42:54;;;;;;;2.20;0.40;;;;;;;18.70;46.50;100437.16;4975525;28;20059;-64
2022/11/08 05:45:19;;;;;;;1.25;0.50;;;;;;;18.68;46.38;100423.78;4976523;28;20041;-64
2022/11/08 05:47:45;;;;;;;1.75;0.70;;;;;;;18.68;45.99;100426.47;4975144;28;20030;-64
2022/11/08 05:50:12;;;;;;;5.60;1.00;;;;;;;18.62;45.90;100419.09;4958831;28;20041;-64
2022/11/08 05:52:37;;;;;;;0.63;0.63;;;;;;;18.64;46.17;100410.78;4958829;28;20039;-64
2022/11/08 05:55:02;;;;;;;2.63;0.50;;;;;;;18.62;46.08;100412.88;4975321;28;20551;-64
2022/11/08 05:57:28;;;;;;;0.93;0.80;;;;;;;18.61;46.30;100409.31;4975089;28;20397;-64
2022/11/08 05:59:53;;;;;;;2.42;0.60;;;;;;;18.63;46.06;100406.38;4976287;28;20046;-64
2022/11/08 06:02:19;;;;;;;1.70;0.70;;;;;;;18.62;45.35;100419.09;4974428;28;20035;-64
2022/11/08 06:04:44;;;;;;;1.73;0.95;;;;;;;18.63;46.08;100412.66;4974615;28;20106;-64
2022/11/08 06:07:09;;;;;;;3.25;0.52;;;;;;;18.62;46.12;100415.56;4958691;28;20037;-64
2022/11/08 06:09:35;;;;;;;1.13;0.47;;;;;;;18.62;45.66;100416.38;4975131;28;20081;-65
2022/11/08 06:12:00;;;;;;;3.97;0.75;;;;;;;18.63;45.95;100418.09;4958332;28;20047;-64
2022/11/08 06:14:26;;;;;;;1.40;0.90;;;;;;;18.65;46.06;100418.72;4974677;28;20090;-64
2022/11/08 06:16:51;;;;;;;1.23;0.68;;;;;;;18.62;46.35;100413.69;4974928;28;20035;-64
2022/11/08 06:19:16;;;;;;;2.03;0.60;;;;;;;18.68;45.81;100415.63;4974542;28;20114;-63
2022/11/08 06:21:42;;;;;;;2.58;0.70;;;;;;;18.69;45.97;100422.75;4975135;28;20416;-64
2022/11/08 06:24:07;;;;;;;1.50;0.52;;;;;;;18.69;46.06;100414.63;4974325;28;20035;-64
2022/11/08 06:26:32;;;;;;;2.42;0.70;;;;;;;18.69;45.93;100417.31;4974523;28;20147;-64
2022/11/08 06:28:59;;;;;;;1.20;0.80;;;;;;;18.72;46.24;100418.81;4974518;28;20106;-64
2022/11/08 06:31:25;;;;;;;1.27;0.55;;;;;;;18.71;45.50;100415.25;4975992;28;20038;-64
2022/11/08 06:33:50;;;;;;;1.83;0.63;;;;;;;18.73;45.92;100432.22;4974457;28;20535;-65
2022/11/08 06:36:15;;;;;;;1.13;0.60;;;;;;;18.70;46.02;100413.59;4974334;28;20034;-65
2022/11/08 06:38:41;;;;;;;0.80;0.60;;;;;;;18.75;45.54;100421.16;4974122;28;20031;-64
2022/11/08 06:41:06;;;;;;;0.82;0.57;;;;;;;18.80;45.53;100418.69;4958097;28;20524;-64
2022/11/08 06:43:31;;;;;;;1.63;0.50;;;;;;;18.84;45.50;100425.44;4974161;28;20037;-64
2022/11/08 06:46:01;;;;;;;1.33;0.50;;;;;;;18.86;45.87;100421.47;4974500;28;20114;-65
2022/11/08 06:48:26;;;;;;;2.05;0.50;;;;;;;18.90;45.63;100420.03;4957984;28;20039;-65
2022/11/08 06:50:52;;;;;;;2.28;0.90;;;;;;;18.91;45.35;100424.44;4973997;28;20566;-64
2022/11/08 06:53:17;;;;;;;0.82;0.68;;;;;;;18.97;45.47;100426.41;4975081;28;20073;-64
2022/11/08 06:55:42;;;;;;;1.33;0.60;;;;;;;19.02;45.52;100429.38;4957480;28;20030;-64
2022/11/08 06:58:09;;;;;;;0.95;0.60;;;;;;;19.04;45.79;100421.88;4972989;28;20078;-64
2022/11/08 07:00:34;;;;;;;3.38;0.90;;;;;;;19.07;45.18;100429.63;4957997;28;20456;-65
2022/11/08 07:03:01;;;;;;;1.45;0.75;;;;;;;19.10;44.96;100428.38;4974808;28;20031;-65
2022/11/08 07:05:28;;;;;;;1.38;0.32;;;;;;;19.17;45.53;100427.44;4973748;28;20041;-64
2022/11/08 07:07:56;;;;;;;0.90;0.65;;;;;;;19.19;45.84;100428.09;4973456;28;20047;-65
2022/11/08 07:10:23;;;;;;;1.05;0.73;;;;;;;19.26;44.88;100430.03;4973553;28;20058;-64
2022/11/08 07:12:57;;;;;;;1.02;0.65;;;;;;;19.33;45.02;100425.47;4957615;28;20432;-65
2022/11/08 07:15:22;;;;;;;1.25;0.73;;;;;;;19.43;44.99;100431.47;4972578;28;20118;-64
2022/11/08 07:17:48;;;;;;;3.83;0.75;;;;;;;19.44;44.48;100427.69;4973356;28;20261;-64
2022/11/08 07:20:13;;;;;;;1.00;0.45;;;;;;;19.50;44.78;100433.19;4974350;28;20113;-64
2022/11/08 07:22:39;;;;;;;1.25;0.70;;;;;;;19.52;44.73;100424.84;4971997;28;20039;-65
2022/11/08 07:25:05;;;;;;;3.35;0.80;;;;;;;19.50;44.94;100426.91;4973557;28;20027;-65
2022/11/08 07:27:30;;;;;;;1.60;0.73;;;;;;;19.60;44.41;100440.97;4973118;28;20046;-65
2022/11/08 07:29:55;;;;;;;2.25;0.70;;;;;;;19.63;44.32;100437.88;4973454;28;20492;-65
2022/11/08 07:32:21;;;;;;;0.63;0.57;;;;;;;19.65;44.54;100435.81;4974266;28;20049;-64
2022/11/08 07:34:46;;;;;;;1.85;0.80;;;;;;;19.67;44.26;100439.19;4974456;28;20118;-64
2022/11/08 07:37:11;;;;;;;0.47;0.43;;;;;;;19.70;44.17;100439.63;4973343;28;20059;-64
2022/11/08 07:39:37;;;;;;;1.15;0.50;;;;;;;19.72;43.94;100442.13;4974266;28;20062;-65
2022/11/08 07:42:02;;;;;;;2.97;1.33;;;;;;;19.78;43.99;100452.22;4973210;28;20378;-65
2022/11/08 07:44:27;;;;;;;1.00;0.50;;;;;;;19.85;44.05;100442.22;4974599;28;20035;-64
2022/11/08 07:46:54;;;;;;;1.80;0.75;;;;;;;19.89;43.61;100448.09;4972916;28;20050;-64
2022/11/08 07:49:19;;;;;;;0.88;0.43;;;;;;;19.91;44.32;100452.31;4974034;28;20118;-64
2022/11/08 07:51:45;;;;;;;3.33;1.00;;;;;;;19.94;43.77;100462.78;4957255;28;20122;-64
2022/11/08 07:54:10;;;;;;;2.72;0.60;;;;;;;19.94;43.50;100459.22;4973932;28;20058;-64
2022/11/08 07:56:35;;;;;;;2.05;0.70;;;;;;;20.00;43.81;100456.56;4974063;28;20038;-65
2022/11/08 07:59:01;;;;;;;2.17;1.17;;;;;;;20.06;43.80;100463.06;4956713;28;20043;-64
2022/11/08 08:01:26;;;;;;;2.40;0.80;;;;;;;20.10;43.80;100451.59;4972967;28;20122;-64
2022/11/08 08:03:51;;;;;;;1.63;0.60;;;;;;;20.14;42.88;100452.03;4957217;28;20033;-64
2022/11/08 08:06:17;;;;;;;1.27;0.52;;;;;;;20.16;43.19;100456.22;4974162;28;20073;-64
2022/11/08 08:08:42;;;;;;;3.70;0.75;;;;;;;20.19;43.40;100444.09;4972821;28;20035;-64
2022/11/08 08:11:08;;;;;;;3.33;0.55;;;;;;;20.22;43.29;100450.00;4956656;28;20046;-65
2022/11/08 08:13:34;;;;;;;2.63;0.65;;;;;;;20.30;42.72;100452.59;4953167;29;20497;-64
2022/11/08 08:16:00;;;;;;;2.92;0.50;;;;;;;20.39;42.86;100449.69;4938043;29;20070;-65
2022/11/08 08:18:25;;;;;;;1.63;0.65;;;;;;;20.41;43.28;100443.00;4953470;28;20203;-65
2022/11/08 08:20:51;;;;;;;5.60;1.08;;;;;;;20.46;43.04;100443.25;4953372;29;20473;-65
2022/11/08 08:23:16;;;;;;;2.03;0.75;;;;;;;20.51;43.12;100443.47;4959544;28;20049;-64
2022/11/08 08:25:41;;;;;;;2.20;0.75;;;;;;;20.56;42.66;100446.44;4992190;28;20033;-64
2022/11/08 08:28:08;;;;;;;1.83;0.82;;;;;;;20.64;42.32;100448.13;4982914;28;20049;-64
2022/11/08 08:30:34;;;;;;;0.80;0.50;;;;;;;20.68;43.17;100444.81;4960730;28;20027;-65
2022/11/08 08:33:06;;;;;;;1.48;1.08;;;;;;;20.74;42.11;100454.03;4959959;28;20554;-64
2022/11/08 08:35:33;;;;;;;1.52;0.60;;;;;;;20.76;42.65;100447.34;4976596;28;20031;-65
2022/11/08 08:38:00;;;;;;;3.13;0.85;;;;;;;20.78;42.23;100447.97;4976075;28;20404;-65
2022/11/08 08:40:25;;;;;;;1.48;0.75;;;;;;;20.83;41.94;100441.91;4960468;28;20058;-65
2022/11/08 08:42:50;;;;;;;1.55;0.75;;;;;;;20.89;42.19;100435.63;4976609;28;20442;-65
2022/11/08 08:45:16;;;;;;;1.55;0.52;;;;;;;20.95;42.04;100443.00;4960158;28;20030;-66
2022/11/08 08:47:41;;;;;;;1.75;0.90;;;;;;;21.01;42.24;100452.22;4976200;28;20038;-65
2022/11/08 08:50:07;;;;;;;1.92;0.80;;;;;;;21.03;42.59;100445.53;4977211;28;20031;-65
2022/11/08 08:52:32;;;;;;;1.10;0.80;;;;;;;21.07;42.27;100452.28;4959910;28;20031;-65
2022/11/08 08:54:58;;;;;;;2.35;0.90;;;;;;;21.11;41.62;100434.47;4976508;28;20054;-65
2022/11/08 08:57:23;;;;;;;2.42;1.00;;;;;;;21.19;42.36;100437.00;4976012;28;20074;-64
2022/11/08 08:59:48;;;;;;;1.33;0.70;;;;;;;21.23;41.51;100437.41;4959734;28;20039;-65
2022/11/08 09:02:14;;;;;;;3.40;1.00;;;;;;;21.34;41.37;100437.66;4977097;28;20042;-65
2022/11/08 09:04:39;;;;;;;2.08;1.10;;;;;;;21.40;41.20;100415.00;4975887;28;20058;-65
2022/11/08 09:07:05;;;;;;;1.67;0.82;;;;;;;21.48;41.12;100433.88;4976158;28;20098;-65
2022/11/08 09:09:30;;;;;;;3.40;0.93;;;;;;;21.63;41.08;100427.38;4959616;28;20035;-65
2022/11/08 09:11:56;;;;;;;2.33;0.95;;;;;;;21.78;41.41;100431.53;4975669;28;20031;-66
2022/11/08 09:14:21;;;;;;;5.43;1.33;;;;;;;21.90;40.99;100435.34;4975800;28;20117;-65
2022/11/08 09:16:46;;;;;;;1.65;0.95;;;;;;;22.01;40.97;100428.41;4959621;28;20031;-65
2022/11/08 09:19:12;;;;;;;0.60;0.50;;;;;;;22.08;40.59;100423.78;4959364;28;20413;-67
2022/11/08 09:21:37;;;;;;;3.08;1.25;;;;;;;22.28;40.88;100421.81;4976051;28;20019;-65
2022/11/08 09:24:02;;;;;;;3.67;0.90;;;;;;;22.48;40.27;100428.03;4975451;28;20039;-66
2022/11/08 09:26:28;;;;;;;1.92;0.90;;;;;;;22.72;39.87;100420.19;4975646;28;20118;-65
2022/11/08 09:28:53;;;;;;;1.38;0.77;;;;;;;22.91;39.80;100430.19;4959403;28;20568;-65
2022/11/08 09:31:19;;;;;;;2.92;0.90;;;;;;;23.03;39.42;100422.97;4976793;28;20392;-66
2022/11/08 09:33:44;;;;;;;1.67;0.73;;;;;;;23.13;39.18;100423.31;4975902;28;20038;-66
2022/11/08 09:36:12;;;;;;;3.20;0.90;;;;;;;23.29;39.84;100419.19;4975429;28;20034;-66
2022/11/08 09:38:37;;;;;;;3.28;0.55;;;;;;;23.47;39.35;100403.75;4958045;28;20038;-66
2022/11/08 09:41:21;;;;;;;4.22;0.70;;;;;;;23.85;38.33;100424.63;4959262;28;20085;-66
2022/11/08 09:43:58;;;;;;;0.93;0.80;;;;;;;23.96;38.46;100411.03;4975233;28;20059;-66
2022/11/08 09:46:28;;;;;;;1.52;0.73;;;;;;;24.06;38.37;100399.59;4976475;28;20092;-66
2022/11/08 09:48:54;;;;;;;1.92;0.70;;;;;;;24.04;38.61;100398.94;4976694;28;20033;-66
2022/11/08 09:51:22;;;;;;;1.42;0.77;;;;;;;24.01;38.20;100410.38;4975092;28;20042;-66
2022/11/08 09:53:50;;;;;;;0.93;0.70;;;;;;;23.98;38.62;100408.91;4975006;28;20085;-65
2022/11/08 09:56:34;;;;;;;1.42;0.70;;;;;;;24.36;37.62;100395.03;4974606;28;20046;-66
2022/11/08 09:59:34;;;;;;;0.90;0.50;;;;;;;24.78;37.30;100388.59;4975046;28;20059;-66
2022/11/08 10:01:59;;;;;;;0.95;0.43;;;;;;;25.30;37.17;100381.47;4975137;28;20043;-66
2022/11/08 10:04:27;;;;;;;3.60;0.82;;;;;;;25.82;36.64;100374.28;4974778;28;20033;-66
2022/11/08 10:07:14;;;;;;;5.55;0.60;;;;;;;25.67;36.86;100376.66;4975237;28;20077;-66
2022/11/08 10:09:40;;;;;;;3.90;0.70;;;;;;;25.39;37.75;100379.22;4974824;28;20039;-66
2022/11/08 10:12:44;;;;;;;0.73;0.40;;;;;;;25.01;37.95;100376.91;4974264;28;20045;-66
2022/11/08 10:15:18;;;;;;;1.83;0.55;;;;;;;24.71;38.12;100382.34;4924447;28;20062;-66
2022/11/08 10:18:15;;;;;;;1.67;0.90;;;;;;;24.48;37.69;100387.72;4958554;28;20122;-66
2022/11/08 10:20:59;;;;;;;2.70;0.63;;;;;;;24.39;38.01;100397.31;4975698;28;20062;-66
2022/11/08 10:23:44;;;;;;;0.75;0.50;;;;;;;24.29;38.34;100405.22;4974609;28;20045;-66
2022/11/08 10:26:17;;;;;;;0.55;0.40;;;;;;;24.35;38.47;100407.03;4975693;28;20035;-67
2022/11/08 10:28:49;;;;;;;1.88;0.80;;;;;;;24.52;37.75;100404.53;4974545;28;20180;-65
2022/11/08 10:31:16;;;;;;;3.10;0.70;;;;;;;24.67;37.92;100405.81;4958608;28;20019;-65
2022/11/08 10:33:55;;;;;;;8.82;1.23;;;;;;;24.49;37.77;100400.34;4958584;28;20038;-65
2022/11/08 10:36:37;;;;;;;1.83;0.77;;;;;;;24.31;38.04;100397.63;4958175;28;20428;-67
2022/11/08 10:39:08;;;;;;;1.63;1.00;;;;;;;24.14;38.08;100402.03;4974188;28;20516;-68
2022/11/08 10:41:37;;;;;;;2.78;0.95;;;;;;;23.97;38.52;100406.41;4975306;28;20117;-67
2022/11/08 10:44:16;;;;;;;2.15;0.75;;;;;;;23.82;38.26;100403.19;4974003;28;20058;-66
2022/11/08 10:46:47;;;;;;;3.50;1.30;;;;;;;23.81;38.50;100396.06;4974184;28;20046;-67
2022/11/08 10:49:25;;;;;;;1.55;0.95;;;;;;;23.78;38.73;100402.81;4973963;28;20424;-67
2022/11/08 10:52:15;;;;;;;4.43;0.73;;;;;;;23.72;38.27;100393.63;4974575;28;20086;-67
2022/11/08 10:54:52;;;;;;;1.40;0.80;;;;;;;23.71;38.84;100402.88;4974801;28;20050;-67
2022/11/08 10:57:30;;;;;;;2.90;0.70;;;;;;;23.66;38.53;100410.09;4973835;28;20042;-67
2022/11/08 10:59:56;;;;;;;5.05;0.80;;;;;;;23.60;38.69;100400.88;4973895;28;20034;-66
2022/11/08 11:02:31;;;;;;;2.67;0.73;;;;;;;23.55;38.01;100402.59;4973765;28;20026;-67
2022/11/08 11:05:14;;;;;;;2.40;0.57;;;;;;;23.48;38.20;100410.84;4975955;28;20043;-65
2022/11/08 11:07:40;;;;;;;1.15;0.88;;;;;;;23.49;38.54;100426.22;4974939;28;20515;-66
2022/11/08 11:10:24;;;;;;;2.97;0.52;;;;;;;23.54;38.62;100434.59;4974090;28;20058;-66
2022/11/08 11:13:02;;;;;;;4.30;0.98;;;;;;;23.60;38.18;100460.19;4974683;28;20504;-66
2022/11/08 11:15:31;;;;;;;1.25;0.47;;;;;;;23.68;38.22;100457.19;4973495;28;20524;-66
2022/11/08 11:17:57;;;;;;;3.42;0.75;;;;;;;23.81;38.64;100456.25;4974710;28;20063;-66
2022/11/08 11:20:22;;;;;;;1.92;0.73;;;;;;;23.87;38.60;100449.88;4973383;28;20066;-66
2022/11/08 11:22:49;;;;;;;1.20;0.55;;;;;;;23.95;38.68;100449.59;4974709;28;20030;-64
2022/11/08 11:25:17;;;;;;;2.65;1.00;;;;;;;24.00;38.42;100455.22;4957239;28;20066;-65
2022/11/08 11:27:43;;;;;;;2.35;1.00;;;;;;;24.12;38.63;100447.97;4973815;28;20023;-67
2022/11/08 11:30:11;;;;;;;2.25;1.30;;;;;;;24.27;38.16;100445.69;4989469;28;20379;-67
2022/11/08 11:32:38;;;;;;;2.03;0.63;;;;;;;24.29;38.20;100438.06;4974528;28;20603;-67
2022/11/08 11:35:05;;;;;;;3.85;0.70;;;;;;;24.39;37.82;100429.34;4989164;28;20035;-67
2022/11/08 11:37:43;;;;;;;2.15;0.70;;;;;;;24.55;37.62;100424.06;4957000;28;20481;-67
2022/11/08 11:40:20;;;;;;;3.08;0.68;;;;;;;24.68;37.77;100406.66;4989313;28;20023;-67
2022/11/08 11:43:01;;;;;;;1.85;0.60;;;;;;;24.75;37.82;100389.03;4974782;28;20019;-67
2022/11/08 11:45:30;;;;;;;5.03;1.05;;;;;;;24.86;37.41;100391.03;4974282;28;20041;-68